sensor_id;sensor_type;location;lat;lon;timestamp;P1;durP1;ratioP1;P2;durP2;ratioP2
51066;SDS011;37112;45.892;-123.962;2023-04-25T00:02:00;17.00;;;2.40;;
51066;SDS011;37112;45.892;-123.962;2023-04-25T00:04:36;18.20;;;2.40;;
51066;SDS011;37112;45.892;-123.962;2023-04-25T00:07:13;12.50;;;2.80;;
51066;SDS011;37112;45.892;-123.962;2023-04-25T00:09:48;11.00;;;1.90;;
51066;SDS011;37112;45.892;-123.962;2023-04-25T00:12:24;10.10;;;2.20;;
51066;SDS011;37112;45.892;-123.962;2023-04-25T00:15:02;20.20;;;4.00;;
51066;SDS011;37112;45.892;-123.962;2023-04-25T00:17:40;18.20;;;3.10;;
51066;SDS011;37112;45.892;-123.962;2023-04-25T00:20:01;14.00;;;2.40;;
51066;SDS011;37112;45.892;-123.962;2023-04-25T00:22:27;23.10;;;2.50;;
51066;SDS011;37112;45.892;-123.962;2023-04-25T00:25:04;22.90;;;2.80;;
51066;SDS011;37112;45.892;-123.962;2023-04-25T00:27:42;9.00;;;1.20;;
51066;SDS011;37112;45.892;-123.962;2023-04-25T00:30:12;15.50;;;2.40;;
51066;SDS011;37112;45.892;-123.962;2023-04-25T00:32:47;28.50;;;3.60;;
51066;SDS011;37112;45.892;-123.962;2023-04-25T00:35:06;5.90;;;1.10;;
51066;SDS011;37112;45.892;-123.962;2023-04-25T00:37:51;10.70;;;1.50;;
51066;SDS011;37112;45.892;-123.962;2023-04-25T00:40:27;5.20;;;0.70;;
51066;SDS011;37112;45.892;-123.962;2023-04-25T00:42:55;9.30;;;2.30;;
51066;SDS011;37112;45.892;-123.962;2023-04-25T00:45:34;3.80;;;0.40;;
51066;SDS011;37112;45.892;-123.962;2023-04-25T00:48:14;7.30;;;1.20;;
51066;SDS011;37112;45.892;-123.962;2023-04-25T00:50:37;20.40;;;3.30;;
51066;SDS011;37112;45.892;-123.962;2023-04-25T00:53:03;13.90;;;2.20;;
51066;SDS011;37112;45.892;-123.962;2023-04-25T00:55:29;13.50;;;2.70;;
51066;SDS011;37112;45.892;-123.962;2023-04-25T00:58:06;9.30;;;1.20;;
51066;SDS011;37112;45.892;-123.962;2023-04-25T01:00:41;13.30;;;2.00;;
51066;SDS011;37112;45.892;-123.962;2023-04-25T01:03:16;15.90;;;3.40;;
51066;SDS011;37112;45.892;-123.962;2023-04-25T01:05:47;16.10;;;2.60;;
51066;SDS011;37112;45.892;-123.962;2023-04-25T01:08:17;9.70;;;1.70;;
51066;SDS011;37112;45.892;-123.962;2023-04-25T01:10:56;8.10;;;1.80;;
51066;SDS011;37112;45.892;-123.962;2023-04-25T01:13:31;11.50;;;2.00;;
51066;SDS011;37112;45.892;-123.962;2023-04-25T01:16:07;16.70;;;1.90;;
51066;SDS011;37112;45.892;-123.962;2023-04-25T01:18:31;13.20;;;1.70;;
51066;SDS011;37112;45.892;-123.962;2023-04-25T01:23:37;4.40;;;0.80;;
51066;SDS011;37112;45.892;-123.962;2023-04-25T01:26:14;10.90;;;2.40;;
51066;SDS011;37112;45.892;-123.962;2023-04-25T01:28:49;10.90;;;1.60;;
51066;SDS011;37112;45.892;-123.962;2023-04-25T01:31:24;9.80;;;1.50;;
51066;SDS011;37112;45.892;-123.962;2023-04-25T01:34:00;6.00;;;1.80;;
51066;SDS011;37112;45.892;-123.962;2023-04-25T01:36:23;2.20;;;0.80;;
51066;SDS011;37112;45.892;-123.962;2023-04-25T01:38:59;12.80;;;3.20;;
51066;SDS011;37112;45.892;-123.962;2023-04-25T01:41:35;7.20;;;1.30;;
51066;SDS011;37112;45.892;-123.962;2023-04-25T01:44:11;16.20;;;2.70;;
51066;SDS011;37112;45.892;-123.962;2023-04-25T01:46:46;15.10;;;1.80;;
51066;SDS011;37112;45.892;-123.962;2023-04-25T01:49:22;13.30;;;1.40;;
51066;SDS011;37112;45.892;-123.962;2023-04-25T01:51:56;5.80;;;0.40;;
51066;SDS011;37112;45.892;-123.962;2023-04-25T01:54:20;7.80;;;1.20;;
51066;SDS011;37112;45.892;-123.962;2023-04-25T01:56:56;7.20;;;1.50;;
51066;SDS011;37112;45.892;-123.962;2023-04-25T01:59:31;6.50;;;1.10;;
51066;SDS011;37112;45.892;-123.962;2023-04-25T02:02:12;10.00;;;1.50;;
51066;SDS011;37112;45.892;-123.962;2023-04-25T02:04:40;12.20;;;1.70;;
51066;SDS011;37112;45.892;-123.962;2023-04-25T02:07:16;10.80;;;1.00;;
51066;SDS011;37112;45.892;-123.962;2023-04-25T02:09:50;6.30;;;1.30;;
51066;SDS011;37112;45.892;-123.962;2023-04-25T02:12:26;8.10;;;2.10;;
51066;SDS011;37112;45.892;-123.962;2023-04-25T02:14:50;10.20;;;1.90;;
51066;SDS011;37112;45.892;-123.962;2023-04-25T02:17:34;9.20;;;1.70;;
51066;SDS011;37112;45.892;-123.962;2023-04-25T02:20:10;3.70;;;1.00;;
51066;SDS011;37112;45.892;-123.962;2023-04-25T02:22:45;6.20;;;0.80;;
51066;SDS011;37112;45.892;-123.962;2023-04-25T02:25:19;7.00;;;1.10;;
51066;SDS011;37112;45.892;-123.962;2023-04-25T02:27:43;6.70;;;0.90;;
51066;SDS011;37112;45.892;-123.962;2023-04-25T02:30:20;7.40;;;1.00;;
51066;SDS011;37112;45.892;-123.962;2023-04-25T02:32:55;15.50;;;2.70;;
51066;SDS011;37112;45.892;-123.962;2023-04-25T02:35:24;7.30;;;0.80;;
51066;SDS011;37112;45.892;-123.962;2023-04-25T02:37:48;13.60;;;1.60;;
51066;SDS011;37112;45.892;-123.962;2023-04-25T02:40:20;8.40;;;1.00;;
51066;SDS011;37112;45.892;-123.962;2023-04-25T02:42:55;4.40;;;1.30;;
51066;SDS011;37112;45.892;-123.962;2023-04-25T02:45:19;8.60;;;1.40;;
51066;SDS011;37112;45.892;-123.962;2023-04-25T02:47:53;13.70;;;2.20;;
51066;SDS011;37112;45.892;-123.962;2023-04-25T02:50:22;10.70;;;1.40;;
51066;SDS011;37112;45.892;-123.962;2023-04-25T02:52:57;10.70;;;1.70;;
51066;SDS011;37112;45.892;-123.962;2023-04-25T02:55:21;10.60;;;1.40;;
51066;SDS011;37112;45.892;-123.962;2023-04-25T02:57:49;5.80;;;0.70;;
51066;SDS011;37112;45.892;-123.962;2023-04-25T03:00:27;11.70;;;1.90;;
51066;SDS011;37112;45.892;-123.962;2023-04-25T03:03:04;7.90;;;1.20;;
51066;SDS011;37112;45.892;-123.962;2023-04-25T03:05:28;4.20;;;0.90;;
51066;SDS011;37112;45.892;-123.962;2023-04-25T03:08:02;8.00;;;0.90;;
51066;SDS011;37112;45.892;-123.962;2023-04-25T03:10:38;2.70;;;0.90;;
51066;SDS011;37112;45.892;-123.962;2023-04-25T03:13:13;10.60;;;1.30;;
51066;SDS011;37112;45.892;-123.962;2023-04-25T03:15:49;11.60;;;2.30;;
51066;SDS011;37112;45.892;-123.962;2023-04-25T03:18:25;7.40;;;1.40;;
51066;SDS011;37112;45.892;-123.962;2023-04-25T03:20:59;15.80;;;2.10;;
51066;SDS011;37112;45.892;-123.962;2023-04-25T03:23:35;11.20;;;1.90;;
51066;SDS011;37112;45.892;-123.962;2023-04-25T03:26:11;8.30;;;1.10;;
51066;SDS011;37112;45.892;-123.962;2023-04-25T03:31:06;11.50;;;2.20;;
51066;SDS011;37112;45.892;-123.962;2023-04-25T03:33:29;11.60;;;1.30;;
51066;SDS011;37112;45.892;-123.962;2023-04-25T03:36:05;8.20;;;1.20;;
51066;SDS011;37112;45.892;-123.962;2023-04-25T03:38:30;7.60;;;1.30;;
51066;SDS011;37112;45.892;-123.962;2023-04-25T03:41:04;7.00;;;0.90;;
51066;SDS011;37112;45.892;-123.962;2023-04-25T03:43:32;6.20;;;0.80;;
51066;SDS011;37112;45.892;-123.962;2023-04-25T03:46:06;2.20;;;1.00;;
51066;SDS011;37112;45.892;-123.962;2023-04-25T03:48:45;5.40;;;0.60;;
51066;SDS011;37112;45.892;-123.962;2023-04-25T03:51:22;8.90;;;1.10;;
51066;SDS011;37112;45.892;-123.962;2023-04-25T03:53:51;20.10;;;3.20;;
51066;SDS011;37112;45.892;-123.962;2023-04-25T03:56:12;7.80;;;1.40;;
51066;SDS011;37112;45.892;-123.962;2023-04-25T03:58:49;11.90;;;3.10;;
51066;SDS011;37112;45.892;-123.962;2023-04-25T04:01:23;22.40;;;2.10;;
51066;SDS011;37112;45.892;-123.962;2023-04-25T04:03:59;5.50;;;1.70;;
51066;SDS011;37112;45.892;-123.962;2023-04-25T04:06:23;15.60;;;2.50;;
51066;SDS011;37112;45.892;-123.962;2023-04-25T04:09:01;10.80;;;2.20;;
51066;SDS011;37112;45.892;-123.962;2023-04-25T04:11:39;10.40;;;2.40;;
51066;SDS011;37112;45.892;-123.962;2023-04-25T04:14:07;21.20;;;2.80;;
51066;SDS011;37112;45.892;-123.962;2023-04-25T04:16:36;13.70;;;1.70;;
51066;SDS011;37112;45.892;-123.962;2023-04-25T04:19:03;18.30;;;1.70;;
51066;SDS011;37112;45.892;-123.962;2023-04-25T04:21:37;15.90;;;2.70;;
51066;SDS011;37112;45.892;-123.962;2023-04-25T04:24:12;10.40;;;2.10;;
51066;SDS011;37112;45.892;-123.962;2023-04-25T04:26:35;10.80;;;1.90;;
51066;SDS011;37112;45.892;-123.962;2023-04-25T04:29:13;9.20;;;2.10;;
51066;SDS011;37112;45.892;-123.962;2023-04-25T04:31:56;16.80;;;2.50;;
51066;SDS011;37112;45.892;-123.962;2023-04-25T04:34:24;8.40;;;1.40;;
51066;SDS011;37112;45.892;-123.962;2023-04-25T04:36:57;12.20;;;1.60;;
51066;SDS011;37112;45.892;-123.962;2023-04-25T04:39:26;6.80;;;1.40;;
51066;SDS011;37112;45.892;-123.962;2023-04-25T04:42:03;14.80;;;2.40;;
51066;SDS011;37112;45.892;-123.962;2023-04-25T04:44:38;12.20;;;1.30;;
51066;SDS011;37112;45.892;-123.962;2023-04-25T04:47:16;12.20;;;1.30;;
51066;SDS011;37112;45.892;-123.962;2023-04-25T04:49:53;11.20;;;1.60;;
51066;SDS011;37112;45.892;-123.962;2023-04-25T04:52:31;11.70;;;1.30;;
51066;SDS011;37112;45.892;-123.962;2023-04-25T04:55:08;7.60;;;2.00;;
51066;SDS011;37112;45.892;-123.962;2023-04-25T04:57:52;12.90;;;1.40;;
51066;SDS011;37112;45.892;-123.962;2023-04-25T05:00:30;8.40;;;1.00;;
51066;SDS011;37112;45.892;-123.962;2023-04-25T05:03:12;7.70;;;0.70;;
51066;SDS011;37112;45.892;-123.962;2023-04-25T05:05:45;5.30;;;1.20;;
51066;SDS011;37112;45.892;-123.962;2023-04-25T05:08:19;8.00;;;2.40;;
51066;SDS011;37112;45.892;-123.962;2023-04-25T05:10:54;6.70;;;1.80;;
51066;SDS011;37112;45.892;-123.962;2023-04-25T05:13:42;20.30;;;4.80;;
51066;SDS011;37112;45.892;-123.962;2023-04-25T05:16:15;12.50;;;1.50;;
51066;SDS011;37112;45.892;-123.962;2023-04-25T05:18:56;4.20;;;0.90;;
51066;SDS011;37112;45.892;-123.962;2023-04-25T05:21:21;4.90;;;1.70;;
51066;SDS011;37112;45.892;-123.962;2023-04-25T05:24:05;4.40;;;1.10;;
51066;SDS011;37112;45.892;-123.962;2023-04-25T05:26:38;2.60;;;0.80;;
51066;SDS011;37112;45.892;-123.962;2023-04-25T05:29:14;3.60;;;1.20;;
51066;SDS011;37112;45.892;-123.962;2023-04-25T05:31:48;5.50;;;1.00;;
51066;SDS011;37112;45.892;-123.962;2023-04-25T05:34:22;4.00;;;0.90;;
51066;SDS011;37112;45.892;-123.962;2023-04-25T05:37:00;2.40;;;0.60;;
51066;SDS011;37112;45.892;-123.962;2023-04-25T05:39:24;2.30;;;1.00;;
51066;SDS011;37112;45.892;-123.962;2023-04-25T05:42:30;2.50;;;0.60;;
51066;SDS011;37112;45.892;-123.962;2023-04-25T05:45:04;4.90;;;0.60;;
51066;SDS011;37112;45.892;-123.962;2023-04-25T05:47:38;2.60;;;0.60;;
51066;SDS011;37112;45.892;-123.962;2023-04-25T05:50:10;2.10;;;0.60;;
51066;SDS011;37112;45.892;-123.962;2023-04-25T05:53:00;4.90;;;0.70;;
51066;SDS011;37112;45.892;-123.962;2023-04-25T05:55:34;1.50;;;0.70;;
51066;SDS011;37112;45.892;-123.962;2023-04-25T05:58:12;2.80;;;0.60;;
51066;SDS011;37112;45.892;-123.962;2023-04-25T06:00:36;1.30;;;0.40;;
51066;SDS011;37112;45.892;-123.962;2023-04-25T06:03:13;2.00;;;0.50;;
51066;SDS011;37112;45.892;-123.962;2023-04-25T06:05:49;2.90;;;0.60;;
51066;SDS011;37112;45.892;-123.962;2023-04-25T06:08:12;3.20;;;0.40;;
51066;SDS011;37112;45.892;-123.962;2023-04-25T06:10:47;1.20;;;0.50;;
51066;SDS011;37112;45.892;-123.962;2023-04-25T06:13:21;3.30;;;0.60;;
51066;SDS011;37112;45.892;-123.962;2023-04-25T06:15:56;1.10;;;0.50;;
51066;SDS011;37112;45.892;-123.962;2023-04-25T06:18:17;1.70;;;0.40;;
51066;SDS011;37112;45.892;-123.962;2023-04-25T06:20:52;3.70;;;0.60;;
51066;SDS011;37112;45.892;-123.962;2023-04-25T06:23:15;2.00;;;0.50;;
51066;SDS011;37112;45.892;-123.962;2023-04-25T06:25:50;1.00;;;0.50;;
51066;SDS011;37112;45.892;-123.962;2023-04-25T06:28:17;2.20;;;0.70;;
51066;SDS011;37112;45.892;-123.962;2023-04-25T06:30:53;2.00;;;0.50;;
51066;SDS011;37112;45.892;-123.962;2023-04-25T06:33:24;2.30;;;0.50;;
51066;SDS011;37112;45.892;-123.962;2023-04-25T06:36:00;2.20;;;0.60;;
51066;SDS011;37112;45.892;-123.962;2023-04-25T06:38:35;1.50;;;0.50;;
51066;SDS011;37112;45.892;-123.962;2023-04-25T06:40:58;3.60;;;0.50;;
51066;SDS011;37112;45.892;-123.962;2023-04-25T06:43:16;1.30;;;0.60;;
51066;SDS011;37112;45.892;-123.962;2023-04-25T06:45:50;2.70;;;1.10;;
51066;SDS011;37112;45.892;-123.962;2023-04-25T06:48:14;1.50;;;0.50;;
51066;SDS011;37112;45.892;-123.962;2023-04-25T06:50:49;4.30;;;0.70;;
51066;SDS011;37112;45.892;-123.962;2023-04-25T06:53:25;3.90;;;0.60;;
51066;SDS011;37112;45.892;-123.962;2023-04-25T06:56:00;2.60;;;0.60;;
51066;SDS011;37112;45.892;-123.962;2023-04-25T06:58:23;1.50;;;0.50;;
51066;SDS011;37112;45.892;-123.962;2023-04-25T07:00:58;1.90;;;0.50;;
51066;SDS011;37112;45.892;-123.962;2023-04-25T07:03:33;2.30;;;0.50;;
51066;SDS011;37112;45.892;-123.962;2023-04-25T07:06:09;0.40;;;0.40;;
51066;SDS011;37112;45.892;-123.962;2023-04-25T07:08:44;1.90;;;0.40;;
51066;SDS011;37112;45.892;-123.962;2023-04-25T07:11:19;2.50;;;2.00;;
51066;SDS011;37112;45.892;-123.962;2023-04-25T07:13:56;2.50;;;0.80;;
51066;SDS011;37112;45.892;-123.962;2023-04-25T07:16:31;0.50;;;0.40;;
51066;SDS011;37112;45.892;-123.962;2023-04-25T07:19:06;1.10;;;0.50;;
51066;SDS011;37112;45.892;-123.962;2023-04-25T07:21:41;1.30;;;0.40;;
51066;SDS011;37112;45.892;-123.962;2023-04-25T07:24:16;1.20;;;0.30;;
51066;SDS011;37112;45.892;-123.962;2023-04-25T07:26:51;4.40;;;1.30;;
51066;SDS011;37112;45.892;-123.962;2023-04-25T07:29:27;0.30;;;0.30;;
51066;SDS011;37112;45.892;-123.962;2023-04-25T07:31:54;0.80;;;0.40;;
51066;SDS011;37112;45.892;-123.962;2023-04-25T07:34:18;3.00;;;0.50;;
51066;SDS011;37112;45.892;-123.962;2023-04-25T07:36:53;0.70;;;0.30;;
51066;SDS011;37112;45.892;-123.962;2023-04-25T07:39:28;1.00;;;0.40;;
51066;SDS011;37112;45.892;-123.962;2023-04-25T07:42:04;3.90;;;0.70;;
51066;SDS011;37112;45.892;-123.962;2023-04-25T07:44:38;1.70;;;0.40;;
51066;SDS011;37112;45.892;-123.962;2023-04-25T07:47:05;2.50;;;0.40;;
51066;SDS011;37112;45.892;-123.962;2023-04-25T07:49:35;0.60;;;0.40;;
51066;SDS011;37112;45.892;-123.962;2023-04-25T07:52:10;0.40;;;0.40;;
51066;SDS011;37112;45.892;-123.962;2023-04-25T07:54:46;0.60;;;0.50;;
51066;SDS011;37112;45.892;-123.962;2023-04-25T07:57:21;1.30;;;0.50;;
51066;SDS011;37112;45.892;-123.962;2023-04-25T07:59:56;2.00;;;0.40;;
51066;SDS011;37112;45.892;-123.962;2023-04-25T08:02:32;0.30;;;0.30;;
51066;SDS011;37112;45.892;-123.962;2023-04-25T08:05:10;0.70;;;0.40;;
51066;SDS011;37112;45.892;-123.962;2023-04-25T08:07:49;0.40;;;0.40;;
51066;SDS011;37112;45.892;-123.962;2023-04-25T08:10:26;4.10;;;0.50;;
51066;SDS011;37112;45.892;-123.962;2023-04-25T08:13:01;1.20;;;0.30;;
51066;SDS011;37112;45.892;-123.962;2023-04-25T08:15:37;3.90;;;0.70;;
51066;SDS011;37112;45.892;-123.962;2023-04-25T08:18:14;1.80;;;0.40;;
51066;SDS011;37112;45.892;-123.962;2023-04-25T08:20:48;0.40;;;0.40;;
51066;SDS011;37112;45.892;-123.962;2023-04-25T08:23:26;0.40;;;0.40;;
51066;SDS011;37112;45.892;-123.962;2023-04-25T08:26:01;0.50;;;0.50;;
51066;SDS011;37112;45.892;-123.962;2023-04-25T08:28:25;0.90;;;0.70;;
51066;SDS011;37112;45.892;-123.962;2023-04-25T08:30:59;0.40;;;0.40;;
51066;SDS011;37112;45.892;-123.962;2023-04-25T08:33:39;1.20;;;1.00;;
51066;SDS011;37112;45.892;-123.962;2023-04-25T08:36:17;1.00;;;0.50;;
51066;SDS011;37112;45.892;-123.962;2023-04-25T08:38:55;0.60;;;0.40;;
51066;SDS011;37112;45.892;-123.962;2023-04-25T08:41:32;1.50;;;0.40;;
51066;SDS011;37112;45.892;-123.962;2023-04-25T08:44:09;2.50;;;0.60;;
51066;SDS011;37112;45.892;-123.962;2023-04-25T08:46:44;3.10;;;0.40;;
51066;SDS011;37112;45.892;-123.962;2023-04-25T08:49:18;0.70;;;0.40;;
51066;SDS011;37112;45.892;-123.962;2023-04-25T08:51:56;1.70;;;0.40;;
51066;SDS011;37112;45.892;-123.962;2023-04-25T08:54:29;0.60;;;0.30;;
51066;SDS011;37112;45.892;-123.962;2023-04-25T08:57:07;1.40;;;0.40;;
51066;SDS011;37112;45.892;-123.962;2023-04-25T08:59:43;1.70;;;0.40;;
51066;SDS011;37112;45.892;-123.962;2023-04-25T09:02:19;2.80;;;0.40;;
51066;SDS011;37112;45.892;-123.962;2023-04-25T09:04:57;0.40;;;0.30;;
51066;SDS011;37112;45.892;-123.962;2023-04-25T09:07:22;0.90;;;0.40;;
51066;SDS011;37112;45.892;-123.962;2023-04-25T09:09:58;2.20;;;0.40;;
51066;SDS011;37112;45.892;-123.962;2023-04-25T09:12:34;0.40;;;0.40;;
51066;SDS011;37112;45.892;-123.962;2023-04-25T09:15:12;0.80;;;0.40;;
51066;SDS011;37112;45.892;-123.962;2023-04-25T09:17:46;2.00;;;0.40;;
51066;SDS011;37112;45.892;-123.962;2023-04-25T09:20:34;3.50;;;0.50;;
51066;SDS011;37112;45.892;-123.962;2023-04-25T09:23:28;0.30;;;0.30;;
51066;SDS011;37112;45.892;-123.962;2023-04-25T09:26:10;0.30;;;0.30;;
51066;SDS011;37112;45.892;-123.962;2023-04-25T09:28:52;0.30;;;0.30;;
51066;SDS011;37112;45.892;-123.962;2023-04-25T09:31:39;0.40;;;0.40;;
51066;SDS011;37112;45.892;-123.962;2023-04-25T09:34:14;0.40;;;0.40;;
51066;SDS011;37112;45.892;-123.962;2023-04-25T09:36:37;1.60;;;0.40;;
51066;SDS011;37112;45.892;-123.962;2023-04-25T09:39:15;0.50;;;0.30;;
51066;SDS011;37112;45.892;-123.962;2023-04-25T09:41:55;0.60;;;0.50;;
51066;SDS011;37112;45.892;-123.962;2023-04-25T09:44:31;0.70;;;0.40;;
51066;SDS011;37112;45.892;-123.962;2023-04-25T09:47:07;1.60;;;0.40;;
51066;SDS011;37112;45.892;-123.962;2023-04-25T09:49:44;0.80;;;0.30;;
51066;SDS011;37112;45.892;-123.962;2023-04-25T09:52:19;3.30;;;0.40;;
51066;SDS011;37112;45.892;-123.962;2023-04-25T09:54:53;2.80;;;0.60;;
51066;SDS011;37112;45.892;-123.962;2023-04-25T09:57:28;0.50;;;0.40;;
51066;SDS011;37112;45.892;-123.962;2023-04-25T09:59:58;0.40;;;0.40;;
51066;SDS011;37112;45.892;-123.962;2023-04-25T10:02:22;0.80;;;0.40;;
51066;SDS011;37112;45.892;-123.962;2023-04-25T10:04:48;0.50;;;0.40;;
51066;SDS011;37112;45.892;-123.962;2023-04-25T10:07:15;0.70;;;0.40;;
51066;SDS011;37112;45.892;-123.962;2023-04-25T10:09:57;1.50;;;0.40;;
51066;SDS011;37112;45.892;-123.962;2023-04-25T10:12:34;1.30;;;0.30;;
51066;SDS011;37112;45.892;-123.962;2023-04-25T10:15:01;3.00;;;0.30;;
51066;SDS011;37112;45.892;-123.962;2023-04-25T10:17:41;0.80;;;0.40;;
51066;SDS011;37112;45.892;-123.962;2023-04-25T10:20:16;2.70;;;0.50;;
51066;SDS011;37112;45.892;-123.962;2023-04-25T10:22:54;1.20;;;0.40;;
51066;SDS011;37112;45.892;-123.962;2023-04-25T10:25:35;2.10;;;0.50;;
51066;SDS011;37112;45.892;-123.962;2023-04-25T10:28:12;10.30;;;0.80;;
51066;SDS011;37112;45.892;-123.962;2023-04-25T10:31:01;1.20;;;0.40;;
51066;SDS011;37112;45.892;-123.962;2023-04-25T10:33:39;0.50;;;0.40;;
51066;SDS011;37112;45.892;-123.962;2023-04-25T10:36:17;1.70;;;0.50;;
51066;SDS011;37112;45.892;-123.962;2023-04-25T10:38:55;0.90;;;0.50;;
51066;SDS011;37112;45.892;-123.962;2023-04-25T10:41:27;0.40;;;0.40;;
51066;SDS011;37112;45.892;-123.962;2023-04-25T10:44:17;0.60;;;0.40;;
51066;SDS011;37112;45.892;-123.962;2023-04-25T10:46:52;0.90;;;0.40;;
51066;SDS011;37112;45.892;-123.962;2023-04-25T10:49:33;0.50;;;0.40;;
51066;SDS011;37112;45.892;-123.962;2023-04-25T10:52:18;1.40;;;0.50;;
51066;SDS011;37112;45.892;-123.962;2023-04-25T10:54:49;1.80;;;0.50;;
51066;SDS011;37112;45.892;-123.962;2023-04-25T10:57:29;0.90;;;0.50;;
51066;SDS011;37112;45.892;-123.962;2023-04-25T11:00:10;1.60;;;0.90;;
51066;SDS011;37112;45.892;-123.962;2023-04-25T11:02:59;0.80;;;0.40;;
51066;SDS011;37112;45.892;-123.962;2023-04-25T11:05:37;2.70;;;0.60;;
51066;SDS011;37112;45.892;-123.962;2023-04-25T11:08:18;2.30;;;0.70;;
51066;SDS011;37112;45.892;-123.962;2023-04-25T11:11:03;2.10;;;0.40;;
51066;SDS011;37112;45.892;-123.962;2023-04-25T11:13:39;1.20;;;0.60;;
51066;SDS011;37112;45.892;-123.962;2023-04-25T11:16:11;1.30;;;0.40;;
51066;SDS011;37112;45.892;-123.962;2023-04-25T11:18:56;2.00;;;0.50;;
51066;SDS011;37112;45.892;-123.962;2023-04-25T11:21:20;2.00;;;0.50;;
51066;SDS011;37112;45.892;-123.962;2023-04-25T11:24:09;2.50;;;0.50;;
51066;SDS011;37112;45.892;-123.962;2023-04-25T11:26:44;1.30;;;0.50;;
51066;SDS011;37112;45.892;-123.962;2023-04-25T11:29:24;1.00;;;0.40;;
51066;SDS011;37112;45.892;-123.962;2023-04-25T11:31:50;2.10;;;0.50;;
51066;SDS011;37112;45.892;-123.962;2023-04-25T11:34:28;3.20;;;0.50;;
51066;SDS011;37112;45.892;-123.962;2023-04-25T11:37:05;1.00;;;0.40;;
51066;SDS011;37112;45.892;-123.962;2023-04-25T11:39:30;0.90;;;0.60;;
51066;SDS011;37112;45.892;-123.962;2023-04-25T11:42:07;1.10;;;0.50;;
51066;SDS011;37112;45.892;-123.962;2023-04-25T11:44:42;1.10;;;0.50;;
51066;SDS011;37112;45.892;-123.962;2023-04-25T11:47:05;1.10;;;0.50;;
51066;SDS011;37112;45.892;-123.962;2023-04-25T11:49:54;1.30;;;0.40;;
51066;SDS011;37112;45.892;-123.962;2023-04-25T11:52:39;2.00;;;0.40;;
51066;SDS011;37112;45.892;-123.962;2023-04-25T11:55:15;2.70;;;0.60;;
51066;SDS011;37112;45.892;-123.962;2023-04-25T11:57:51;2.50;;;0.50;;
51066;SDS011;37112;45.892;-123.962;2023-04-25T12:00:26;0.60;;;0.40;;
51066;SDS011;37112;45.892;-123.962;2023-04-25T12:02:55;3.30;;;0.60;;
51066;SDS011;37112;45.892;-123.962;2023-04-25T12:05:31;2.70;;;0.50;;
51066;SDS011;37112;45.892;-123.962;2023-04-25T12:08:13;0.50;;;0.40;;
51066;SDS011;37112;45.892;-123.962;2023-04-25T12:10:48;1.90;;;0.40;;
51066;SDS011;37112;45.892;-123.962;2023-04-25T12:13:25;2.90;;;0.40;;
51066;SDS011;37112;45.892;-123.962;2023-04-25T12:16:02;0.60;;;0.50;;
51066;SDS011;37112;45.892;-123.962;2023-04-25T12:18:36;2.50;;;0.60;;
51066;SDS011;37112;45.892;-123.962;2023-04-25T12:21:12;0.50;;;0.50;;
51066;SDS011;37112;45.892;-123.962;2023-04-25T12:23:51;1.80;;;0.40;;
51066;SDS011;37112;45.892;-123.962;2023-04-25T12:26:28;1.30;;;0.80;;
51066;SDS011;37112;45.892;-123.962;2023-04-25T12:29:24;0.90;;;0.40;;
51066;SDS011;37112;45.892;-123.962;2023-04-25T12:32:15;1.10;;;0.50;;
51066;SDS011;37112;45.892;-123.962;2023-04-25T12:34:50;1.30;;;0.50;;
51066;SDS011;37112;45.892;-123.962;2023-04-25T12:37:18;0.40;;;0.40;;
51066;SDS011;37112;45.892;-123.962;2023-04-25T12:39:55;0.30;;;0.30;;
51066;SDS011;37112;45.892;-123.962;2023-04-25T12:42:32;1.00;;;0.50;;
51066;SDS011;37112;45.892;-123.962;2023-04-25T12:45:08;2.10;;;0.40;;
51066;SDS011;37112;45.892;-123.962;2023-04-25T12:47:43;1.10;;;0.40;;
51066;SDS011;37112;45.892;-123.962;2023-04-25T12:50:17;0.70;;;0.50;;
51066;SDS011;37112;45.892;-123.962;2023-04-25T12:52:51;1.80;;;0.50;;
51066;SDS011;37112;45.892;-123.962;2023-04-25T12:55:27;1.30;;;0.50;;
51066;SDS011;37112;45.892;-123.962;2023-04-25T12:58:02;1.30;;;0.50;;
51066;SDS011;37112;45.892;-123.962;2023-04-25T13:00:37;0.60;;;0.40;;
51066;SDS011;37112;45.892;-123.962;2023-04-25T13:03:12;0.40;;;0.40;;
51066;SDS011;37112;45.892;-123.962;2023-04-25T13:05:48;1.00;;;0.50;;
51066;SDS011;37112;45.892;-123.962;2023-04-25T13:08:23;1.50;;;0.50;;
51066;SDS011;37112;45.892;-123.962;2023-04-25T13:10:57;0.40;;;0.40;;
51066;SDS011;37112;45.892;-123.962;2023-04-25T13:13:32;1.50;;;0.40;;
51066;SDS011;37112;45.892;-123.962;2023-04-25T13:16:07;0.60;;;0.60;;
51066;SDS011;37112;45.892;-123.962;2023-04-25T13:18:44;0.40;;;0.40;;
51066;SDS011;37112;45.892;-123.962;2023-04-25T13:24:13;4.10;;;0.40;;
51066;SDS011;37112;45.892;-123.962;2023-04-25T13:26:36;0.70;;;0.40;;
51066;SDS011;37112;45.892;-123.962;2023-04-25T13:29:00;0.40;;;0.40;;
51066;SDS011;37112;45.892;-123.962;2023-04-25T13:31:34;1.00;;;0.40;;
51066;SDS011;37112;45.892;-123.962;2023-04-25T13:34:09;1.60;;;0.40;;
51066;SDS011;37112;45.892;-123.962;2023-04-25T13:36:42;0.90;;;0.40;;
51066;SDS011;37112;45.892;-123.962;2023-04-25T13:39:19;1.20;;;0.40;;
51066;SDS011;37112;45.892;-123.962;2023-04-25T13:41:57;1.30;;;0.30;;
51066;SDS011;37112;45.892;-123.962;2023-04-25T13:44:31;0.90;;;0.40;;
51066;SDS011;37112;45.892;-123.962;2023-04-25T13:47:08;1.10;;;0.70;;
51066;SDS011;37112;45.892;-123.962;2023-04-25T13:49:37;0.40;;;0.40;;
51066;SDS011;37112;45.892;-123.962;2023-04-25T13:52:11;0.70;;;0.70;;
51066;SDS011;37112;45.892;-123.962;2023-04-25T13:54:48;0.30;;;0.30;;
51066;SDS011;37112;45.892;-123.962;2023-04-25T13:57:22;0.50;;;0.40;;
51066;SDS011;37112;45.892;-123.962;2023-04-25T13:59:57;0.70;;;0.50;;
51066;SDS011;37112;45.892;-123.962;2023-04-25T14:02:35;1.20;;;0.40;;
51066;SDS011;37112;45.892;-123.962;2023-04-25T14:05:11;1.40;;;0.40;;
51066;SDS011;37112;45.892;-123.962;2023-04-25T14:07:48;0.40;;;0.40;;
51066;SDS011;37112;45.892;-123.962;2023-04-25T14:10:26;1.20;;;0.40;;
51066;SDS011;37112;45.892;-123.962;2023-04-25T14:13:02;1.90;;;0.40;;
51066;SDS011;37112;45.892;-123.962;2023-04-25T14:15:38;0.80;;;0.40;;
51066;SDS011;37112;45.892;-123.962;2023-04-25T14:18:13;1.30;;;0.30;;
51066;SDS011;37112;45.892;-123.962;2023-04-25T14:20:49;0.40;;;0.40;;
51066;SDS011;37112;45.892;-123.962;2023-04-25T14:23:23;0.90;;;0.40;;
51066;SDS011;37112;45.892;-123.962;2023-04-25T14:25:58;3.80;;;0.50;;
51066;SDS011;37112;45.892;-123.962;2023-04-25T14:28:33;2.80;;;0.30;;
51066;SDS011;37112;45.892;-123.962;2023-04-25T14:31:08;0.30;;;0.30;;
51066;SDS011;37112;45.892;-123.962;2023-04-25T14:33:44;0.60;;;0.30;;
51066;SDS011;37112;45.892;-123.962;2023-04-25T14:36:19;0.30;;;0.30;;
51066;SDS011;37112;45.892;-123.962;2023-04-25T14:38:55;0.50;;;0.40;;
51066;SDS011;37112;45.892;-123.962;2023-04-25T14:41:29;2.10;;;0.40;;
51066;SDS011;37112;45.892;-123.962;2023-04-25T14:44:05;1.30;;;0.30;;
51066;SDS011;37112;45.892;-123.962;2023-04-25T14:46:28;0.50;;;0.30;;
51066;SDS011;37112;45.892;-123.962;2023-04-25T14:49:05;2.30;;;0.40;;
51066;SDS011;37112;45.892;-123.962;2023-04-25T14:51:40;2.50;;;0.40;;
51066;SDS011;37112;45.892;-123.962;2023-04-25T14:54:18;0.50;;;0.40;;
51066;SDS011;37112;45.892;-123.962;2023-04-25T14:56:52;1.00;;;0.40;;